Jacobus — OR3790 — position and weather

sailwx.info

Track history (hours):
 
Tides and Currents Weather Stations Pressure Air Temp Water Temp Dewpoint Dewpoint Depression Visibility Wind Speed Wind Dir Waves Ship Positions

Jacobus

Last reported at 2014-Sep-21 07:31 UTC. Time now 2014-Sep-21 08:10 UTC.
Position N 39°34' E 002°39'.

Length 17 m.

Type: Pleasure craft. MMSI: 205379010.

Date/timePositionNaut miles runAvg speedWind from/ knotsBaromVisibWave heightAir tempDewpointWater temp
2014-Sep-21 07:31N 39°34' E 002°39'0 0.0
2014-Sep-21 06:31N 39°34' E 002°39'0 0.0
2014-Sep-21 05:31N 39°34' E 002°39'0 0.0
2014-Sep-21 04:31N 39°34' E 002°39'0 0.0
2014-Sep-21 03:31N 39°34' E 002°39'0 0.0
2014-Sep-21 02:31N 39°34' E 002°39'0 0.0
2014-Sep-21 01:32N 39°34' E 002°39'0 0.0
2014-Sep-21 00:32N 39°34' E 002°39'0 0.0
2014-Sep-20 23:31N 39°34' E 002°39'0 0.0
2014-Sep-20 22:32N 39°34' E 002°39'0 0.0
2014-Sep-20 21:32N 39°34' E 002°39'0 0.0
2014-Sep-20 20:32N 39°34' E 002°39'0 0.0
2014-Sep-20 19:33N 39°34' E 002°39'4 2.8
2014-Sep-20 18:12N 39°32' E 002°35'0 0.0
2014-Sep-20 17:33N 39°32' E 002°35'3 3.3
2014-Sep-20 16:33N 39°29' E 002°32'0 0.0
2014-Sep-20 15:33N 39°29' E 002°32'3 2.3
2014-Sep-20 14:11N 39°29' E 002°28'1 0.4
2014-Sep-20 11:13N 39°29' E 002°27'2 2.8
2014-Sep-20 10:28N 39°30' E 002°24'1 0.0
2014-Sep-19 16:08N 39°31' E 002°24'4 6.3
2014-Sep-19 15:33N 39°28' E 002°27'4 4.3
2014-Sep-19 14:33N 39°30' E 002°32'1 0.7
2014-Sep-19 13:33N 39°30' E 002°32'0 0.0
2014-Sep-19 12:33N 39°30' E 002°32'  
Track history (hours):
 
Tides and Currents Weather Stations Pressure Air Temp Water Temp Dewpoint Dewpoint Depression Visibility Wind Speed Wind Dir Waves Ship Positions

Jacobus

Last reported at 2014-Sep-21 07:31 UTC. Time now 2014-Sep-21 08:10 UTC.
Position N 39°34' E 002°39'.

Length 17 m.

Type: Pleasure craft. MMSI: 205379010.

Date/timePositionNaut miles runAvg speedWind from/ knotsBaromVisibWave heightAir tempDewpointWater temp
2014-Sep-21 07:31N 39°34' E 002°39'0 0.0
2014-Sep-21 06:31N 39°34' E 002°39'0 0.0
2014-Sep-21 05:31N 39°34' E 002°39'0 0.0
2014-Sep-21 04:31N 39°34' E 002°39'0 0.0
2014-Sep-21 03:31N 39°34' E 002°39'0 0.0
2014-Sep-21 02:31N 39°34' E 002°39'0 0.0
2014-Sep-21 01:32N 39°34' E 002°39'0 0.0
2014-Sep-21 00:32N 39°34' E 002°39'0 0.0
2014-Sep-20 23:31N 39°34' E 002°39'0 0.0
2014-Sep-20 22:32N 39°34' E 002°39'0 0.0
2014-Sep-20 21:32N 39°34' E 002°39'0 0.0
2014-Sep-20 20:32N 39°34' E 002°39'0 0.0
2014-Sep-20 19:33N 39°34' E 002°39'4 2.8
2014-Sep-20 18:12N 39°32' E 002°35'0 0.0
2014-Sep-20 17:33N 39°32' E 002°35'3 3.3
2014-Sep-20 16:33N 39°29' E 002°32'0 0.0
2014-Sep-20 15:33N 39°29' E 002°32'3 2.3
2014-Sep-20 14:11N 39°29' E 002°28'1 0.4
2014-Sep-20 11:13N 39°29' E 002°27'2 2.8
2014-Sep-20 10:28N 39°30' E 002°24'1 0.0
2014-Sep-19 16:08N 39°31' E 002°24'4 6.3
2014-Sep-19 15:33N 39°28' E 002°27'4 4.3
2014-Sep-19 14:33N 39°30' E 002°32'1 0.7
2014-Sep-19 13:33N 39°30' E 002°32'0 0.0
2014-Sep-19 12:33N 39°30' E 002°32'  

Dump ship's entire track history